createdAt,value
2022-12-09T00:01:10.204Z,94374.00
2022-12-09T00:03:37.125Z,94387.84
2022-12-09T00:06:10.924Z,94375.03
2022-12-09T00:08:37.587Z,94383.56
2022-12-09T00:11:05.672Z,94387.81
2022-12-09T00:13:32.408Z,94389.16
2022-12-09T00:15:59.289Z,94387.56
2022-12-09T00:18:26.085Z,94397.69
2022-12-09T00:20:52.674Z,94389.41
2022-12-09T00:23:19.304Z,94389.69
2022-12-09T00:25:45.916Z,94390.47
2022-12-09T00:28:12.487Z,94387.25
2022-12-09T00:30:39.199Z,94370.19
2022-12-09T00:33:05.880Z,94374.16
2022-12-09T00:35:32.348Z,94366.16
2022-12-09T00:37:59.084Z,94364.31
2022-12-09T00:40:25.814Z,94360.56
2022-12-09T00:42:52.257Z,94347.22
2022-12-09T00:45:18.909Z,94348.31
2022-12-09T00:47:46.264Z,94345.13
2022-12-09T00:50:12.889Z,94347.81
2022-12-09T00:52:39.427Z,94340.84
2022-12-09T00:55:07.719Z,94344.59
2022-12-09T00:57:34.789Z,94348.34
2022-12-09T01:00:01.408Z,94344.59
2022-12-09T01:02:28.272Z,94335.28
2022-12-09T01:04:56.422Z,94331.00
2022-12-09T01:07:23.206Z,94321.41
2022-12-09T01:09:49.670Z,94320.63
2022-12-09T01:12:16.192Z,94324.34
2022-12-09T01:14:42.866Z,94321.69
2022-12-09T01:17:09.524Z,94315.28
2022-12-09T01:19:36.104Z,94318.75
2022-12-09T01:22:02.858Z,94320.63
2022-12-09T01:24:30.104Z,94326.75
2022-12-09T01:26:56.861Z,94318.47
2022-12-09T01:29:23.392Z,94323.53
2022-12-09T01:31:50.076Z,94317.91
2022-12-09T01:34:16.883Z,94312.59
2022-12-09T01:36:43.541Z,94300.06
2022-12-09T01:39:10.935Z,94298.97
2022-12-09T01:41:37.713Z,94300.59
2022-12-09T01:44:19.610Z,94292.56
2022-12-09T01:46:46.968Z,94290.44
2022-12-09T01:49:24.850Z,94288.81
2022-12-09T01:52:05.465Z,94287.25
2022-12-09T01:54:32.774Z,94293.88
2022-12-09T01:57:00.005Z,94308.31
2022-12-09T01:59:28.245Z,94307.22
2022-12-09T02:01:59.417Z,94295.75
2022-12-09T02:04:28.414Z,94298.16
2022-12-09T02:06:57.949Z,94289.38
2022-12-09T02:09:25.166Z,94284.03
2022-12-09T02:11:57.771Z,94280.00
2022-12-09T02:14:32.042Z,94282.66
2022-12-09T02:17:20.746Z,94278.94
2022-12-09T02:20:06.846Z,94274.09
2022-12-09T02:22:44.644Z,94265.03
2022-12-09T02:25:44.108Z,94261.31
2022-12-09T02:28:54.538Z,94256.50
2022-12-09T02:31:44.082Z,94254.84
2022-12-09T02:34:18.485Z,94258.84
2022-12-09T02:37:10.713Z,94245.72
2022-12-09T02:39:50.009Z,94229.16
2022-12-09T02:42:21.661Z,94228.63
2022-12-09T02:44:50.785Z,94216.59
2022-12-09T02:47:22.707Z,94221.88
2022-12-09T02:49:52.478Z,94225.88
2022-12-09T02:52:21.754Z,94228.28
2022-12-09T02:54:49.442Z,94245.31
2022-12-09T02:57:19.942Z,94227.16
2022-12-09T02:59:46.867Z,94230.06
2022-12-09T03:02:35.344Z,94222.56
2022-12-09T03:05:13.523Z,94216.66
2022-12-09T03:07:54.143Z,94212.66
2022-12-09T03:10:44.084Z,94212.38
2022-12-09T03:13:18.246Z,94199.53
2022-12-09T03:15:50.724Z,94191.50
2022-12-09T03:18:21.001Z,94185.38
2022-12-09T03:20:50.556Z,94187.25
2022-12-09T03:23:20.202Z,94189.91
2022-12-09T03:25:51.646Z,94192.34
2022-12-09T03:28:30.543Z,94189.19
2022-12-09T03:31:03.119Z,94193.19
2022-12-09T03:33:30.716Z,94201.75
2022-12-09T03:36:02.607Z,94191.66
2022-12-09T03:38:35.144Z,94191.13
2022-12-09T03:41:20.661Z,94185.56
2022-12-09T03:43:53.233Z,94186.91
2022-12-09T03:46:22.181Z,94176.81
2022-12-09T03:48:49.339Z,94175.50
2022-12-09T03:51:27.500Z,94176.84
2022-12-09T03:54:09.445Z,94178.19
2022-12-09T03:56:41.231Z,94175.03
2022-12-09T03:59:11.903Z,94186.75
2022-12-09T04:01:41.770Z,94193.97
2022-12-09T04:04:09.165Z,94183.31
2022-12-09T04:06:35.850Z,94178.53
2022-12-09T04:09:03.710Z,94168.41
2022-12-09T04:11:31.686Z,94178.28
2022-12-09T04:13:58.448Z,94176.19
2022-12-09T04:16:25.471Z,94160.47
2022-12-09T04:18:52.097Z,94158.34
2022-12-09T04:21:19.065Z,94160.22
2022-12-09T04:23:45.726Z,94166.63
2022-12-09T04:26:19.331Z,94155.72
2022-12-09T04:28:46.046Z,94153.06
2022-12-09T04:31:14.677Z,94163.72
2022-12-09T04:33:42.183Z,94159.97
2022-12-09T04:36:12.404Z,94164.53
2022-12-09T04:38:39.743Z,94153.84
2022-12-09T04:41:06.684Z,94155.72
2022-12-09T04:43:33.624Z,94155.44
2022-12-09T04:46:06.522Z,94146.13
2022-12-09T04:48:33.613Z,94153.06
2022-12-09T04:51:00.184Z,94145.06
2022-12-09T04:53:27.349Z,94132.50
2022-12-09T04:56:18.305Z,94119.47
2022-12-09T04:58:45.603Z,94120.25
2022-12-09T05:01:17.614Z,94118.38
2022-12-09T05:03:48.730Z,94099.72
2022-12-09T05:06:16.349Z,94098.63
2022-12-09T05:08:43.993Z,94098.63
2022-12-09T05:11:11.422Z,94095.44
2022-12-09T05:13:38.159Z,94099.72
2022-12-09T05:16:13.834Z,94103.97
2022-12-09T05:18:43.218Z,94091.44
2022-12-09T05:21:12.553Z,94093.00
2022-12-09T05:23:39.543Z,94090.88
2022-12-09T05:26:09.533Z,94098.59
2022-12-09T05:28:37.205Z,94093.00
2022-12-09T05:31:07.124Z,94099.91
2022-12-09T05:33:34.385Z,94094.28
2022-12-09T05:36:01.270Z,94087.09
2022-12-09T05:38:28.223Z,94085.22
2022-12-09T05:40:54.766Z,94084.13
2022-12-09T05:43:21.711Z,94089.16
2022-12-09T05:45:48.570Z,94092.94
2022-12-09T05:48:15.116Z,94096.66
2022-12-09T05:50:42.328Z,94096.94
2022-12-09T05:53:09.098Z,94098.03
2022-12-09T05:55:35.831Z,94094.84
2022-12-09T05:58:02.833Z,94086.34
2022-12-09T06:00:29.736Z,94081.78
2022-12-09T06:02:56.323Z,94087.13
2022-12-09T06:05:23.790Z,94094.34
2022-12-09T06:07:50.675Z,94095.94
2022-12-09T06:10:17.783Z,94103.94
2022-12-09T06:12:44.815Z,94096.44
2022-12-09T06:15:13.519Z,94090.53
2022-12-09T06:17:44.042Z,94079.31
2022-12-09T06:20:11.436Z,94080.59
2022-12-09T06:22:38.584Z,94066.97
2022-12-09T06:25:05.672Z,94069.09
2022-12-09T06:27:32.587Z,94060.28
2022-12-09T06:29:59.495Z,94065.34
2022-12-09T06:32:26.103Z,94058.13
2022-12-09T06:34:53.130Z,94057.84
2022-12-09T06:37:20.119Z,94048.50
2022-12-09T06:39:47.254Z,94055.13
2022-12-09T06:42:14.446Z,94044.97
2022-12-09T06:44:41.058Z,94041.75
2022-12-09T06:47:08.457Z,94028.91
2022-12-09T06:49:35.398Z,94031.50
2022-12-09T06:52:02.457Z,94024.81
2022-12-09T06:54:29.656Z,94025.59
2022-12-09T06:56:56.374Z,94029.88
2022-12-09T06:59:23.083Z,94040.25
2022-12-09T07:01:50.187Z,94040.75
2022-12-09T07:04:17.856Z,94047.41
2022-12-09T07:06:46.075Z,94046.03
2022-12-09T07:09:18.858Z,94048.94
2022-12-09T07:11:46.356Z,94032.88
2022-12-09T07:14:14.775Z,94037.63
2022-12-09T07:16:42.195Z,94042.13
2022-12-09T07:19:15.773Z,94049.56
2022-12-09T07:21:43.038Z,94041.47
2022-12-09T07:24:10.682Z,94036.84
2022-12-09T07:26:37.672Z,94036.28
2022-12-09T07:29:05.846Z,94038.91
2022-12-09T07:31:33.790Z,94039.91
2022-12-09T07:34:01.059Z,94050.09
2022-12-09T07:36:32.180Z,94041.41
2022-12-09T07:39:01.636Z,94029.09
2022-12-09T07:41:29.698Z,94023.94
2022-12-09T07:43:56.634Z,94019.47
2022-12-09T07:46:24.626Z,94017.75
2022-12-09T07:48:51.990Z,94007.75
2022-12-09T07:51:18.915Z,94016.78
2022-12-09T07:53:47.063Z,94020.78
2022-12-09T07:56:15.147Z,94022.34
2022-12-09T07:58:43.132Z,94008.41
2022-12-09T08:01:16.754Z,94010.00
2022-12-09T08:03:44.357Z,94021.69
2022-12-09T08:06:12.826Z,94017.66
2022-12-09T08:08:40.052Z,94022.41
2022-12-09T08:11:15.531Z,94026.38
2022-12-09T08:13:42.596Z,94038.84
2022-12-09T08:16:11.590Z,94027.28
2022-12-09T08:18:38.737Z,94016.53
2022-12-09T08:21:08.269Z,94024.75
2022-12-09T08:23:35.528Z,94018.53
2022-12-09T08:26:03.071Z,94013.09
2022-12-09T08:28:30.127Z,93992.72
2022-12-09T08:30:58.343Z,94000.16
2022-12-09T08:33:25.517Z,94000.75
2022-12-09T08:35:52.369Z,93998.94
2022-12-09T08:38:19.194Z,93998.88
2022-12-09T08:40:46.295Z,93987.28
2022-12-09T08:43:12.859Z,93988.28
2022-12-09T08:45:41.139Z,93991.16
2022-12-09T08:48:08.868Z,93998.59
2022-12-09T08:50:35.671Z,93999.88
2022-12-09T08:53:03.128Z,93989.66
2022-12-09T08:55:30.016Z,93980.25
2022-12-09T08:57:57.399Z,93985.81
2022-12-09T09:00:24.238Z,93977.19
2022-12-09T09:02:51.040Z,93970.75
2022-12-09T09:05:18.511Z,93973.13
2022-12-09T09:07:45.746Z,93980.56
2022-12-09T09:10:13.337Z,93991.78
2022-12-09T09:12:43.495Z,93997.13
2022-12-09T09:15:10.836Z,93997.13
2022-12-09T09:17:38.515Z,93999.00
2022-12-09T09:20:06.226Z,94001.69
2022-12-09T09:22:34.606Z,94023.09
2022-12-09T09:25:01.648Z,94010.50
2022-12-09T09:27:28.407Z,94011.28
2022-12-09T09:29:55.069Z,94009.44
2022-12-09T09:32:22.150Z,93999.22
2022-12-09T09:34:49.199Z,93987.09
2022-12-09T09:37:17.138Z,93986.78
2022-12-09T09:39:43.953Z,93983.03
2022-12-09T09:42:17.755Z,93990.28
2022-12-09T09:44:50.084Z,93993.44
2022-12-09T09:47:45.489Z,93984.34
2022-12-09T09:50:48.702Z,93971.25
2022-12-09T09:53:27.545Z,93968.28
2022-12-09T09:56:01.317Z,93969.06
2022-12-09T09:58:56.602Z,93976.78
2022-12-09T10:01:27.807Z,93971.63
2022-12-09T10:04:26.451Z,93968.66
2022-12-09T10:07:08.395Z,93953.88
2022-12-09T10:09:49.462Z,93954.84
2022-12-09T10:12:44.432Z,93950.78
2022-12-09T10:15:19.589Z,93941.38
2022-12-09T10:17:53.423Z,93932.22
2022-12-09T10:20:27.656Z,93929.75
2022-12-09T10:23:02.226Z,93926.16
2022-12-09T10:25:35.644Z,93937.09
2022-12-09T10:28:26.092Z,93922.28
2022-12-09T10:30:55.647Z,93928.31
2022-12-09T10:33:40.117Z,93938.44
2022-12-09T10:36:22.156Z,93936.25
2022-12-09T10:38:48.794Z,93914.19
2022-12-09T10:41:29.599Z,93923.53
2022-12-09T10:44:24.654Z,93928.91
2022-12-09T10:47:04.070Z,93925.09
2022-12-09T10:49:32.142Z,93919.94
2022-12-09T10:51:59.356Z,93915.38
2022-12-09T10:54:34.290Z,93909.22
2022-12-09T10:57:12.531Z,93909.72
2022-12-09T10:59:41.636Z,93905.13
2022-12-09T11:02:08.914Z,93904.06
2022-12-09T11:04:41.048Z,93898.69
2022-12-09T11:07:23.900Z,93888.56
2022-12-09T11:09:52.304Z,93880.84
2022-12-09T11:12:32.098Z,93872.81
2022-12-09T11:15:04.454Z,93874.69
2022-12-09T11:17:35.870Z,93871.22
2022-12-09T11:20:05.777Z,93869.34
2022-12-09T11:22:38.252Z,93867.44
2022-12-09T11:25:25.132Z,93855.63
2022-12-09T11:28:21.711Z,93857.41
2022-12-09T11:33:55.334Z,93848.25
2022-12-09T11:36:31.349Z,93846.88
2022-12-09T11:39:29.330Z,93837.72
2022-12-09T11:41:57.730Z,93837.53
2022-12-09T11:44:31.414Z,93835.72
2022-12-09T11:47:19.857Z,93828.13
2022-12-09T11:49:51.737Z,93829.13
2022-12-09T11:52:18.193Z,93833.88
2022-12-09T11:54:59.515Z,93830.88
2022-12-09T11:57:30.787Z,93827.91
2022-12-09T12:00:02.012Z,93826.78
2022-12-09T12:02:37.563Z,93825.38
2022-12-09T12:05:22.047Z,93823.69
2022-12-09T12:08:17.322Z,93822.25
2022-12-09T12:10:49.996Z,93817.38
2022-12-09T12:13:22.573Z,93817.06
2022-12-09T12:15:57.301Z,93822.63
2022-12-09T12:18:27.322Z,93823.09
2022-12-09T12:21:07.320Z,93816.34
2022-12-09T12:24:03.135Z,93813.34
2022-12-09T12:26:39.964Z,93809.75
2022-12-09T12:29:32.125Z,93809.09
2022-12-09T12:32:36.357Z,93805.00
2022-12-09T12:35:08.758Z,93797.13
2022-12-09T12:37:47.174Z,93797.13
2022-12-09T12:40:37.805Z,93792.06
2022-12-09T12:43:26.574Z,93802.81
2022-12-09T12:46:02.563Z,93792.28
2022-12-09T12:48:38.449Z,93792.56
2022-12-09T12:51:25.190Z,93790.69
2022-12-09T12:54:10.559Z,93788.31
2022-12-09T12:56:49.129Z,93785.94
2022-12-09T12:59:22.792Z,93781.19
2022-12-09T13:01:57.220Z,93789.53
2022-12-09T13:04:39.174Z,93792.84
2022-12-09T13:07:11.443Z,93791.38
2022-12-09T13:09:56.270Z,93791.22
2022-12-09T13:12:32.328Z,93785.41
2022-12-09T13:14:58.835Z,93775.44
2022-12-09T13:17:29.294Z,93777.66
2022-12-09T13:20:01.076Z,93783.94
2022-12-09T13:22:40.995Z,93781.56
2022-12-09T13:25:37.441Z,93787.84
2022-12-09T13:28:09.636Z,93779.19
2022-12-09T13:30:48.456Z,93784.56
2022-12-09T13:33:38.029Z,93782.66
2022-12-09T13:36:26.243Z,93787.56
2022-12-09T13:38:53.645Z,93786.47
2022-12-09T13:41:36.384Z,93798.28
2022-12-09T13:44:16.814Z,93787.56
2022-12-09T13:46:43.584Z,93784.25
2022-12-09T13:49:20.906Z,93790.41
2022-12-09T13:51:50.216Z,93792.47
2022-12-09T13:54:19.232Z,93795.94
2022-12-09T13:57:07.821Z,93799.41
2022-12-09T13:59:59.116Z,93800.66
2022-12-09T14:02:38.395Z,93799.59
2022-12-09T14:05:14.702Z,93798.19
2022-12-09T14:07:59.975Z,93801.34
2022-12-09T14:10:35.708Z,93796.44
2022-12-09T14:13:17.616Z,93799.63
2022-12-09T14:15:45.448Z,93801.34
2022-12-09T14:18:31.166Z,93800.88
2022-12-09T14:21:30.994Z,93801.06
2022-12-09T14:24:09.795Z,93807.38
2022-12-09T14:26:37.597Z,93803.31
2022-12-09T14:29:04.391Z,93807.06
2022-12-09T14:31:44.651Z,93815.91
2022-12-09T14:34:39.576Z,93817.03
2022-12-09T14:37:21.973Z,93814.03
2022-12-09T14:40:02.831Z,93827.44
2022-12-09T14:42:47.187Z,93827.13
2022-12-09T14:45:44.777Z,93829.31
2022-12-09T14:48:16.204Z,93835.19
2022-12-09T14:50:42.690Z,93832.97
2022-12-09T14:53:22.139Z,93837.56
2022-12-09T14:55:49.752Z,93839.94
2022-12-09T14:58:20.993Z,93839.13
2022-12-09T15:00:47.606Z,93843.41
2022-12-09T15:03:35.476Z,93832.97
2022-12-09T15:06:16.997Z,93832.97
2022-12-09T15:08:43.563Z,93836.44
2022-12-09T15:11:20.366Z,93834.06
2022-12-09T15:13:49.150Z,93828.69
2022-12-09T15:16:20.992Z,93835.19
2022-12-09T15:18:49.320Z,93841.34
2022-12-09T15:21:27.565Z,93836.28
2022-12-09T15:23:54.686Z,93833.28
2022-12-09T15:26:25.825Z,93841.63
2022-12-09T15:28:54.247Z,93833.59
2022-12-09T15:31:23.786Z,93836.28
2022-12-09T15:33:54.093Z,93843.53
2022-12-09T15:36:31.348Z,93856.44
2022-12-09T15:39:18.460Z,93855.50
2022-12-09T15:41:47.868Z,93865.13
2022-12-09T15:44:18.201Z,93871.59
2022-12-09T15:46:47.602Z,93862.75
2022-12-09T15:49:21.917Z,93865.41
2022-12-09T15:51:50.915Z,93860.06
2022-12-09T15:54:23.476Z,93857.38
2022-12-09T15:56:59.328Z,93853.91
2022-12-09T15:59:43.208Z,93863.03
2022-12-09T16:02:13.147Z,93858.81
2022-12-09T16:04:46.191Z,93858.31
2022-12-09T16:07:15.333Z,93854.06
2022-12-09T16:09:42.492Z,93854.34
2022-12-09T16:12:29.020Z,93856.06
2022-12-09T16:14:55.593Z,93846.94
2022-12-09T16:17:28.585Z,93857.97
2022-12-09T16:19:55.289Z,93859.84
2022-12-09T16:22:27.148Z,93856.38
2022-12-09T16:25:17.352Z,93858.75
2022-12-09T16:27:47.150Z,93864.09
2022-12-09T16:30:16.898Z,93866.00
2022-12-09T16:32:45.128Z,93867.09
2022-12-09T16:35:11.665Z,93867.09
2022-12-09T16:38:00.414Z,93873.56
2022-12-09T16:40:26.854Z,93869.28
2022-12-09T16:42:55.575Z,93876.56
2022-12-09T16:45:37.341Z,93875.75
2022-12-09T16:48:04.340Z,93875.75
2022-12-09T16:50:33.789Z,93869.28
2022-12-09T16:53:01.307Z,93878.44
2022-12-09T16:55:30.965Z,93881.09
2022-12-09T16:57:59.041Z,93886.16
2022-12-09T17:00:25.653Z,93898.44
2022-12-09T17:03:04.462Z,93894.34
2022-12-09T17:05:31.071Z,93888.19
2022-12-09T17:07:57.657Z,93892.78
2022-12-09T17:10:24.708Z,93897.34
2022-12-09T17:12:51.257Z,93897.34
2022-12-09T17:15:20.339Z,93906.50
2022-12-09T17:17:48.902Z,93914.03
2022-12-09T17:20:16.073Z,93908.97
2022-12-09T17:22:42.707Z,93908.50
2022-12-09T17:25:09.475Z,93918.91
2022-12-09T17:27:36.789Z,93922.69
2022-12-09T17:30:03.877Z,93915.75
2022-12-09T17:32:30.358Z,93914.63
2022-12-09T17:34:56.832Z,93922.19
2022-12-09T17:37:23.297Z,93929.75
2022-12-09T17:39:55.627Z,93938.91
2022-12-09T17:42:26.507Z,93943.78
2022-12-09T17:44:52.990Z,93951.00
2022-12-09T17:47:19.482Z,93951.31
2022-12-09T17:49:45.929Z,93960.47
2022-12-09T17:52:12.422Z,93952.72
2022-12-09T17:54:38.922Z,93950.81
2022-12-09T17:57:05.467Z,93953.22
2022-12-09T17:59:32.023Z,93950.53
2022-12-09T18:01:58.661Z,93955.88
2022-12-09T18:04:25.383Z,93954.00
2022-12-09T18:06:52.014Z,93960.94
2022-12-09T18:09:19.131Z,93965.53
2022-12-09T18:11:46.291Z,93976.25
2022-12-09T18:14:13.039Z,93977.81
2022-12-09T18:16:39.687Z,93981.31
2022-12-09T18:19:13.899Z,93990.91
2022-12-09T18:21:40.406Z,93987.94
2022-12-09T18:24:07.374Z,93991.44
2022-12-09T18:26:39.712Z,93991.13
2022-12-09T18:29:08.159Z,93996.19
2022-12-09T18:31:35.045Z,93992.38
2022-12-09T18:34:01.530Z,93999.03
2022-12-09T18:36:29.155Z,93991.00
2022-12-09T18:38:56.201Z,93997.16
2022-12-09T18:41:25.261Z,93989.91
2022-12-09T18:43:53.211Z,93989.59
2022-12-09T18:46:25.856Z,93989.59
2022-12-09T18:49:04.164Z,93987.41
2022-12-09T18:51:31.377Z,93990.88
2022-12-09T18:53:58.723Z,93995.94
2022-12-09T18:56:26.152Z,93996.72
2022-12-09T18:59:09.332Z,93997.53
2022-12-09T19:01:40.409Z,93994.03
2022-12-09T19:04:12.826Z,93991.06
2022-12-09T19:06:41.509Z,93999.59
2022-12-09T19:09:15.308Z,94001.47
2022-12-09T19:11:43.267Z,94005.44
2022-12-09T19:14:10.939Z,93997.41
2022-12-09T19:16:38.291Z,93999.00
2022-12-09T19:19:09.441Z,94008.59
2022-12-09T19:21:36.614Z,94016.34
2022-12-09T19:24:03.127Z,94012.09
2022-12-09T19:26:32.304Z,94012.88
2022-12-09T19:29:04.723Z,93996.78
2022-12-09T19:31:36.735Z,93992.22
2022-12-09T19:34:25.482Z,93987.97
2022-12-09T19:36:54.029Z,93990.81
2022-12-09T19:39:23.092Z,94002.34
2022-12-09T19:41:51.517Z,93992.72
2022-12-09T19:44:37.350Z,93992.41
2022-12-09T19:47:06.345Z,93994.00
2022-12-09T19:49:32.986Z,94005.53
2022-12-09T19:51:59.469Z,94015.44
2022-12-09T19:54:28.573Z,94035.03
2022-12-09T19:56:55.978Z,94032.66
2022-12-09T19:59:22.488Z,94032.13
2022-12-09T20:01:49.194Z,94034.03
2022-12-09T20:04:47.747Z,94031.19
2022-12-09T20:07:08.249Z,94021.53
2022-12-09T20:09:36.381Z,94025.31
2022-12-09T20:12:02.927Z,94026.59
2022-12-09T20:14:29.489Z,94026.59
2022-12-09T20:16:56.005Z,94027.38
2022-12-09T20:19:22.611Z,94034.34
2022-12-09T20:21:49.650Z,94031.66
2022-12-09T20:24:16.237Z,94019.84
2022-12-09T20:26:42.894Z,94028.06
2022-12-09T20:29:10.726Z,94016.84
2022-12-09T20:31:38.379Z,94017.34
2022-12-09T20:34:08.541Z,94026.16
2022-12-09T20:36:36.771Z,94025.56
2022-12-09T20:39:10.040Z,94027.94
2022-12-09T20:41:36.555Z,94028.41
2022-12-09T20:44:03.110Z,94035.38
2022-12-09T20:46:32.203Z,94037.28
2022-12-09T20:48:59.889Z,94034.28
2022-12-09T20:51:35.138Z,94039.97
2022-12-09T20:54:01.853Z,94039.66
2022-12-09T20:56:29.651Z,94044.72
2022-12-09T20:58:57.048Z,94039.34
2022-12-09T21:01:32.539Z,94035.06
2022-12-09T21:04:00.553Z,94029.09
2022-12-09T21:06:30.214Z,94025.63
2022-12-09T21:09:00.078Z,94027.50
2022-12-09T21:11:26.767Z,94032.88
2022-12-09T21:13:58.550Z,94036.69
2022-12-09T21:16:27.914Z,94038.53
2022-12-09T21:18:57.358Z,94039.34
2022-12-09T21:21:28.506Z,94042.03
2022-12-09T21:23:54.986Z,94042.66
2022-12-09T21:26:23.563Z,94045.31
2022-12-09T21:28:51.346Z,94044.22
2022-12-09T21:31:26.044Z,94054.47
2022-12-09T21:33:54.934Z,94060.59
2022-12-09T21:36:27.441Z,94053.38
2022-12-09T21:38:54.970Z,94071.84
2022-12-09T21:41:24.588Z,94070.25
2022-12-09T21:43:52.445Z,94069.47
2022-12-09T21:46:22.401Z,94069.47
2022-12-09T21:48:52.445Z,94059.53
2022-12-09T21:51:20.171Z,94065.66
2022-12-09T21:53:47.325Z,94052.25
2022-12-09T21:56:17.338Z,94054.94
2022-12-09T21:58:45.537Z,94063.50
2022-12-09T22:01:21.381Z,94070.44
2022-12-09T22:03:49.613Z,94065.06
2022-12-09T22:06:16.749Z,94071.66
2022-12-09T22:08:43.816Z,94073.41
2022-12-09T22:11:13.772Z,94084.16
2022-12-09T22:13:40.772Z,94079.59
2022-12-09T22:16:09.010Z,94080.38
2022-12-09T22:18:35.677Z,94079.59
2022-12-09T22:21:27.983Z,94081.47
2022-12-09T22:24:00.281Z,94080.84
2022-12-09T22:26:28.013Z,94084.34
2022-12-09T22:28:55.626Z,94080.56
2022-12-09T22:31:28.083Z,94068.75
2022-12-09T22:33:58.396Z,94063.84
2022-12-09T22:36:25.007Z,94071.59
2022-12-09T22:38:53.669Z,94073.97
2022-12-09T22:41:24.236Z,94073.97
2022-12-09T22:43:51.602Z,94068.31
2022-12-09T22:46:24.355Z,94068.13
2022-12-09T22:48:51.148Z,94061.66
2022-12-09T22:51:29.326Z,94056.59
2022-12-09T22:53:57.022Z,94051.22
2022-12-09T22:56:24.457Z,94052.78
2022-12-09T22:58:51.935Z,94054.25
2022-12-09T23:01:24.261Z,94057.72
2022-12-09T23:03:50.723Z,94058.50
2022-12-09T23:06:17.921Z,94056.59
2022-12-09T23:08:44.999Z,94064.63
2022-12-09T23:11:14.252Z,94047.75
2022-12-09T23:13:41.547Z,94049.66
2022-12-09T23:16:10.734Z,94050.44
2022-12-09T23:18:37.993Z,94047.75
2022-12-09T23:21:11.182Z,94046.19
2022-12-09T23:23:38.169Z,94048.25
2022-12-09T23:26:13.078Z,94052.03
2022-12-09T23:28:41.856Z,94061.16
2022-12-09T23:31:10.251Z,94055.81
2022-12-09T23:33:38.396Z,94061.94
2022-12-09T23:36:05.800Z,94067.75
2022-12-09T23:38:32.325Z,94082.16
2022-12-09T23:40:59.023Z,94069.53
2022-12-09T23:43:25.563Z,94085.91
2022-12-09T23:45:52.130Z,94093.19
2022-12-09T23:48:18.606Z,94081.97
2022-12-09T23:50:45.098Z,94080.38
2022-12-09T23:53:11.718Z,94068.88
2022-12-09T23:55:41.789Z,94063.50
2022-12-09T23:58:08.833Z,94064.28
